Orange Wave — ELPX7 — position and weather

sailwx.info

Track history (hours):
 
Tides and Currents Weather Stations Pressure Air Temp Water Temp Dewpoint Dewpoint Depression Visibility Wind Speed Wind Dir Waves Ship Positions

Orange Wave

Last reported at 2014-Sep-15 03:20 UTC. Time now 2014-Sep-16 05:01 UTC.
Position S 29°47' E 036°51'.

Type: Cargo ship. MMSI: 636009894.

Date/timePositionNaut miles runAvg speedWind from/ knotsBaromVisibWave heightAir tempDewpointWater temp
2014-Sep-15 03:20S 29°47' E 036°51'1315.1
2014-Sep-15 02:30S 29°47' E 036°36'1415.0
2014-Sep-15 01:33S 29°46' E 036°20'1515.0
2014-Sep-15 00:31S 29°43' E 036°02'6114.8
2014-Sep-14 20:22S 29°35' E 034°52'16512.9
2014-Sep-14 07:32S 29°46' E 031°42'1212.4
2014-Sep-14 06:33S 29°48' E 031°29'1414.3
2014-Sep-14 05:33S 29°51' E 031°13'2 2.4
2014-Sep-14 04:31S 29°52' E 031°10'5 4.7
2014-Sep-14 03:33S 29°52' E 031°15'1110.5
2014-Sep-14 02:32S 29°55' E 031°27'1310.9
2014-Sep-14 01:23S 29°56' E 031°42'  
Track history (hours):
 
Tides and Currents Weather Stations Pressure Air Temp Water Temp Dewpoint Dewpoint Depression Visibility Wind Speed Wind Dir Waves Ship Positions

Orange Wave

Last reported at 2014-Sep-15 03:20 UTC. Time now 2014-Sep-16 05:01 UTC.
Position S 29°47' E 036°51'.

Type: Cargo ship. MMSI: 636009894.

Date/timePositionNaut miles runAvg speedWind from/ knotsBaromVisibWave heightAir tempDewpointWater temp
2014-Sep-15 03:20S 29°47' E 036°51'1315.1
2014-Sep-15 02:30S 29°47' E 036°36'1415.0
2014-Sep-15 01:33S 29°46' E 036°20'1515.0
2014-Sep-15 00:31S 29°43' E 036°02'6114.8
2014-Sep-14 20:22S 29°35' E 034°52'16512.9
2014-Sep-14 07:32S 29°46' E 031°42'1212.4
2014-Sep-14 06:33S 29°48' E 031°29'1414.3
2014-Sep-14 05:33S 29°51' E 031°13'2 2.4
2014-Sep-14 04:31S 29°52' E 031°10'5 4.7
2014-Sep-14 03:33S 29°52' E 031°15'1110.5
2014-Sep-14 02:32S 29°55' E 031°27'1310.9
2014-Sep-14 01:23S 29°56' E 031°42'  

Dump ship's entire track history